createdAt,value
2019-06-08T00:00:02.692Z,0.80
2019-06-08T00:05:07.827Z,0.95
2019-06-08T00:10:12.700Z,0.90
2019-06-08T00:15:16.299Z,0.85
2019-06-08T00:20:19.850Z,0.90
2019-06-08T00:25:24.220Z,0.93
2019-06-08T00:30:28.831Z,1.00
2019-06-08T00:35:32.739Z,1.20
2019-06-08T00:40:36.134Z,1.20
2019-06-08T00:45:39.599Z,1.12
2019-06-08T00:50:43.241Z,1.12
2019-06-08T00:55:46.637Z,1.10
2019-06-08T01:00:50.429Z,1.20
2019-06-08T01:05:53.817Z,0.90
2019-06-08T01:10:57.218Z,1.12
2019-06-08T01:16:00.617Z,1.00
2019-06-08T01:21:04.278Z,1.00
2019-06-08T01:26:07.667Z,1.20
2019-06-08T01:31:11.324Z,1.10
2019-06-08T01:36:14.715Z,0.90
2019-06-08T01:41:18.455Z,1.05
2019-06-08T01:46:21.969Z,1.12
2019-06-08T01:51:26.501Z,1.00
2019-06-08T01:56:31.218Z,1.10
2019-06-08T02:01:34.805Z,1.37
2019-06-08T02:06:38.229Z,1.20
2019-06-08T02:11:41.621Z,1.10
2019-06-08T02:16:45.019Z,1.42
2019-06-08T02:21:48.430Z,1.20
2019-06-08T02:26:51.877Z,1.32
2019-06-08T02:31:55.291Z,1.32
2019-06-08T02:36:58.715Z,1.10
2019-06-08T02:42:02.122Z,1.40
2019-06-08T02:47:06.027Z,1.10
2019-06-08T02:52:10.482Z,1.10
2019-06-08T02:57:15.050Z,1.40
2019-06-08T03:02:20.494Z,1.47
2019-06-08T03:07:25.144Z,1.40
2019-06-08T03:12:28.570Z,1.47
2019-06-08T03:17:33.383Z,1.32
2019-06-08T03:22:40.791Z,1.00
2019-06-08T03:27:43.188Z,1.10
2019-06-08T03:32:55.610Z,0.90
2019-06-08T03:37:52.790Z,1.15
2019-06-08T03:42:58.007Z,1.17
2019-06-08T03:48:01.475Z,1.00
2019-06-08T03:53:05.034Z,1.30
2019-06-08T03:58:10.398Z,0.90
2019-06-08T04:03:13.546Z,0.98
2019-06-08T04:08:16.936Z,0.88
2019-06-08T04:13:20.355Z,1.05
2019-06-08T04:18:23.757Z,1.00
2019-06-08T04:23:27.171Z,1.15
2019-06-08T04:28:30.563Z,1.10
2019-06-08T04:33:33.990Z,0.95
2019-06-08T04:38:38.923Z,0.90
2019-06-08T04:43:43.054Z,1.00
2019-06-08T04:48:49.856Z,1.30
2019-06-08T04:53:52.705Z,1.00
2019-06-08T04:58:56.096Z,1.05
2019-06-08T05:03:59.498Z,1.05
2019-06-08T05:09:03.359Z,0.98
2019-06-08T05:14:06.813Z,1.05
2019-06-08T05:19:10.226Z,1.17
2019-06-08T05:24:13.982Z,1.15
2019-06-08T05:29:17.378Z,1.47
2019-06-08T05:34:20.874Z,1.02
2019-06-08T05:39:24.284Z,1.05
2019-06-08T05:44:27.748Z,1.00
2019-06-08T05:49:31.149Z,0.90
2019-06-08T05:54:34.545Z,1.20
2019-06-08T05:59:37.933Z,0.98
2019-06-08T06:04:42.459Z,1.07
2019-06-08T06:09:46.950Z,1.17
2019-06-08T06:14:51.285Z,1.10
2019-06-08T06:19:54.827Z,1.20
2019-06-08T06:24:58.220Z,0.90
2019-06-08T06:30:02.230Z,1.02
2019-06-08T06:35:06.682Z,1.10
2019-06-08T06:40:10.718Z,1.00
2019-06-08T06:45:14.916Z,1.20
2019-06-08T06:50:18.636Z,1.10
2019-06-08T06:55:25.223Z,1.15
2019-06-08T07:00:32.561Z,1.02
2019-06-08T07:05:36.017Z,1.32
2019-06-08T07:10:39.409Z,1.45
2019-06-08T07:15:42.822Z,1.15
2019-06-08T07:20:46.274Z,1.30
2019-06-08T07:25:50.423Z,1.20
2019-06-08T07:30:54.872Z,1.30
2019-06-08T07:35:59.879Z,1.40
2019-06-08T07:41:03.404Z,1.20
2019-06-08T07:46:07.100Z,1.30
2019-06-08T07:51:10.491Z,1.42
2019-06-08T07:56:13.880Z,1.50
2019-06-08T08:01:17.269Z,1.27
2019-06-08T08:06:20.662Z,1.40
2019-06-08T08:11:24.422Z,1.40
2019-06-08T08:16:27.812Z,1.50
2019-06-08T08:21:31.208Z,1.62
2019-06-08T08:26:34.866Z,1.55
2019-06-08T08:31:38.270Z,1.62
2019-06-08T08:36:41.913Z,1.62
2019-06-08T08:41:45.304Z,1.52
2019-06-08T08:46:50.190Z,1.60
2019-06-08T08:51:54.093Z,1.60
2019-06-08T08:57:01.795Z,1.37
2019-06-08T09:02:03.148Z,1.62
2019-06-08T09:07:09.998Z,1.42
2019-06-08T09:12:11.785Z,1.25
2019-06-08T09:17:17.900Z,1.45
2019-06-08T09:22:20.421Z,1.57
2019-06-08T09:27:23.801Z,1.47
2019-06-08T09:32:28.186Z,1.75
2019-06-08T09:43:34.875Z,1.25
2019-06-08T09:48:38.356Z,1.50
2019-06-08T09:53:41.993Z,1.32
2019-06-08T09:58:45.657Z,1.40
2019-06-08T10:03:49.050Z,1.00
2019-06-08T10:08:52.452Z,1.40
2019-06-08T10:13:59.456Z,1.27
2019-06-08T10:19:03.897Z,1.20
2019-06-08T10:24:09.105Z,1.32
2019-06-08T10:29:11.245Z,1.20
2019-06-08T10:34:14.883Z,1.17
2019-06-08T10:39:18.517Z,1.20
2019-06-08T10:44:21.901Z,1.20
2019-06-08T10:49:28.430Z,1.40
2019-06-08T10:54:30.655Z,1.22
2019-06-08T10:59:36.582Z,1.15
2019-06-08T11:04:43.191Z,1.40
2019-06-08T11:09:44.372Z,1.40
2019-06-08T11:14:48.175Z,1.60
2019-06-08T11:19:51.628Z,1.30
2019-06-08T11:24:55.033Z,1.65
2019-06-08T11:29:59.585Z,1.77
2019-06-08T11:35:06.491Z,1.57
2019-06-08T11:40:12.884Z,1.42
2019-06-08T11:45:17.725Z,1.40
2019-06-08T11:50:41.791Z,1.42
2019-06-08T11:55:44.251Z,1.57
2019-06-08T12:01:05.480Z,1.37
2019-06-08T12:06:12.327Z,1.70
2019-06-08T12:11:18.817Z,1.90
2019-06-08T12:16:22.303Z,1.50
2019-06-08T12:21:27.253Z,1.57
2019-06-08T12:26:30.188Z,1.50
2019-06-08T12:31:33.818Z,1.80
2019-06-08T12:36:37.609Z,1.50
2019-06-08T12:41:40.975Z,1.25
2019-06-08T12:46:44.375Z,1.40
2019-06-08T12:51:50.670Z,1.35
2019-06-08T12:56:52.901Z,1.55
2019-06-08T13:01:58.528Z,1.40
2019-06-08T13:07:01.672Z,1.42
2019-06-08T13:12:07.738Z,1.55
2019-06-08T13:17:11.538Z,1.52
2019-06-08T13:22:15.285Z,1.80
2019-06-08T13:27:21.520Z,1.47
2019-06-08T13:32:23.817Z,1.60
2019-06-08T13:37:27.608Z,1.70
2019-06-08T13:42:31.042Z,1.60
2019-06-08T13:47:38.140Z,1.35
2019-06-08T13:52:39.805Z,1.20
2019-06-08T13:57:43.468Z,1.40
2019-06-08T14:02:48.492Z,1.40
2019-06-08T14:07:51.933Z,1.25
2019-06-08T14:12:55.382Z,1.45
2019-06-08T14:17:58.792Z,1.60
2019-06-08T14:23:02.250Z,1.57
2019-06-08T14:28:05.752Z,1.52
2019-06-08T14:33:09.144Z,1.30
2019-06-08T14:38:12.557Z,1.30
2019-06-08T14:43:17.631Z,1.30
2019-06-08T14:48:24.111Z,1.50
2019-06-08T14:53:26.846Z,1.40
2019-06-08T14:58:34.572Z,1.50
2019-06-08T15:03:37.715Z,1.30
2019-06-08T15:08:40.627Z,1.27
2019-06-08T15:13:44.028Z,1.35
2019-06-08T15:18:47.724Z,1.30
2019-06-08T15:23:51.120Z,1.30
2019-06-08T15:28:54.512Z,1.50
2019-06-08T15:34:00.683Z,1.50
2019-06-08T15:39:03.293Z,1.55
2019-06-08T15:44:06.684Z,1.32
2019-06-08T15:49:11.061Z,1.40
2019-06-08T15:54:14.565Z,1.50
2019-06-08T15:59:17.963Z,1.65
2019-06-08T16:04:21.353Z,1.37
2019-06-08T16:09:25.975Z,1.40
2019-06-08T16:14:30.937Z,1.50
2019-06-08T16:19:35.858Z,1.45
2019-06-08T16:24:39.358Z,1.27
2019-06-08T16:29:43.098Z,1.15
2019-06-08T16:34:46.496Z,1.45
2019-06-08T16:39:49.961Z,1.52
2019-06-08T16:44:53.649Z,1.30
2019-06-08T16:49:57.372Z,1.50
2019-06-08T16:55:00.793Z,1.60
2019-06-08T17:00:30.157Z,1.57
2019-06-08T17:05:10.621Z,1.50
2019-06-08T17:10:14.181Z,1.22
2019-06-08T17:15:18.234Z,1.02
2019-06-08T17:20:21.629Z,1.30
2019-06-08T17:25:25.026Z,1.30
2019-06-08T17:30:28.424Z,1.65
2019-06-08T17:35:33.387Z,1.35
2019-06-08T17:40:37.978Z,1.55
2019-06-08T17:45:42.765Z,1.40
2019-06-08T17:50:46.738Z,1.42
2019-06-08T17:55:50.134Z,1.10
2019-06-08T18:00:53.529Z,1.30
2019-06-08T18:05:58.020Z,1.37
2019-06-08T18:11:01.464Z,1.27
2019-06-08T18:16:05.073Z,1.47
2019-06-08T18:21:08.466Z,1.20
2019-06-08T18:26:11.865Z,1.37
2019-06-08T18:31:15.384Z,1.47
2019-06-08T18:36:19.209Z,1.80
2019-06-08T18:41:22.616Z,1.50
2019-06-08T18:46:27.231Z,1.50
2019-06-08T18:51:30.990Z,1.40
2019-06-08T18:56:36.057Z,1.57
2019-06-08T19:01:40.805Z,1.60
2019-06-08T19:06:48.806Z,1.60
2019-06-08T19:11:51.949Z,1.85
2019-06-08T19:16:57.943Z,1.60
2019-06-08T19:22:00.492Z,1.67
2019-06-08T19:27:03.885Z,1.57
2019-06-08T19:32:07.618Z,1.52
2019-06-08T19:37:11.012Z,1.70
2019-06-08T19:42:14.665Z,1.70
2019-06-08T19:47:18.081Z,1.60
2019-06-08T19:52:21.440Z,1.82
2019-06-08T19:57:24.928Z,1.80
2019-06-08T20:02:28.620Z,1.80
2019-06-08T20:07:32.065Z,1.65
2019-06-08T20:12:37.207Z,1.60
2019-06-08T20:17:41.657Z,1.70
2019-06-08T20:22:46.692Z,1.75
2019-06-08T20:27:51.655Z,1.70
2019-06-08T20:32:57.412Z,1.82
2019-06-08T20:38:00.252Z,2.15
2019-06-08T20:43:03.649Z,2.27
2019-06-08T20:48:07.049Z,1.90
2019-06-08T20:53:10.440Z,1.98
2019-06-08T20:58:13.832Z,1.90
2019-06-08T21:03:17.537Z,2.17
2019-06-08T21:08:20.997Z,1.90
2019-06-08T21:13:24.634Z,1.72
2019-06-08T21:18:28.052Z,2.10
2019-06-08T21:23:32.270Z,1.90
2019-06-08T21:28:35.754Z,1.80
2019-06-08T21:33:39.145Z,2.02
2019-06-08T21:38:42.634Z,1.52
2019-06-08T21:43:48.933Z,1.82
2019-06-08T21:48:53.019Z,2.30
2019-06-08T21:53:59.221Z,1.75
2019-06-08T21:59:02.447Z,2.12
2019-06-08T22:04:07.768Z,1.62
2019-06-08T22:09:11.982Z,2.15
2019-06-08T22:14:15.435Z,2.02
2019-06-08T22:19:18.855Z,1.90
2019-06-08T22:24:22.250Z,1.72
2019-06-08T22:29:27.563Z,2.05
2019-06-08T22:34:30.761Z,1.90
2019-06-08T22:39:34.158Z,1.92
2019-06-08T22:44:37.785Z,2.42
2019-06-08T22:49:41.459Z,1.90
2019-06-08T22:54:44.853Z,1.90
2019-06-08T22:59:48.261Z,1.90
2019-06-08T23:04:52.010Z,1.85
2019-06-08T23:09:59.348Z,2.30
2019-06-08T23:15:02.016Z,2.17
2019-06-08T23:20:08.706Z,1.80
2019-06-08T23:25:11.661Z,1.80
2019-06-08T23:30:18.263Z,1.80
2019-06-08T23:35:20.724Z,1.82
2019-06-08T23:40:24.112Z,1.90
2019-06-08T23:45:27.606Z,1.80
2019-06-08T23:50:31.009Z,1.70
2019-06-08T23:55:34.402Z,1.70
